createdAt,value
2018-11-13T00:00:54.187Z,100419.00
2018-11-13T00:04:00.452Z,100414.00
2018-11-13T00:06:40.651Z,100407.00
2018-11-13T00:09:12.571Z,100415.00
2018-11-13T00:11:58.791Z,100411.00
2018-11-13T00:14:32.764Z,100420.00
2018-11-13T00:17:00.243Z,100422.00
2018-11-13T00:19:27.747Z,100426.00
2018-11-13T00:22:07.995Z,100425.00
2018-11-13T00:24:35.612Z,100429.00
2018-11-13T00:27:21.151Z,100430.00
2018-11-13T00:29:48.654Z,100435.00
2018-11-13T00:32:16.163Z,100442.00
2018-11-13T00:34:43.953Z,100437.00
2018-11-13T00:37:11.495Z,100438.00
2018-11-13T00:39:39.149Z,100444.00
2018-11-13T00:42:06.626Z,100441.00
2018-11-13T00:44:34.160Z,100440.00
2018-11-13T00:47:01.920Z,100452.00
2018-11-13T00:49:29.517Z,100452.00
2018-11-13T00:51:57.062Z,100450.00
2018-11-13T00:54:24.779Z,100450.00
2018-11-13T00:56:52.299Z,100454.00
2018-11-13T00:59:19.868Z,100452.00
2018-11-13T01:01:47.717Z,100451.00
2018-11-13T01:04:15.239Z,100446.00
2018-11-13T01:06:42.767Z,100450.00
2018-11-13T01:09:10.771Z,100448.00
2018-11-13T01:11:38.455Z,100447.00
2018-11-13T01:14:06.271Z,100442.00
2018-11-13T01:16:33.975Z,100443.00
2018-11-13T01:19:01.467Z,100438.00
2018-11-13T01:21:30.455Z,100445.00
2018-11-13T01:23:58.197Z,100444.00
2018-11-13T01:26:25.628Z,100435.00
2018-11-13T01:28:53.374Z,100436.00
2018-11-13T01:31:20.895Z,100437.00
2018-11-13T01:33:48.442Z,100434.00
2018-11-13T01:36:17.016Z,100434.00
2018-11-13T01:38:44.523Z,100438.00
2018-11-13T01:41:12.133Z,100435.00
2018-11-13T01:43:39.852Z,100432.00
2018-11-13T01:46:07.415Z,100428.00
2018-11-13T01:48:34.927Z,100429.00
2018-11-13T01:51:02.765Z,100424.00
2018-11-13T01:53:30.307Z,100426.00
2018-11-13T01:55:57.846Z,100431.00
2018-11-13T01:58:25.561Z,100437.00
2018-11-13T02:00:53.064Z,100429.00
2018-11-13T02:03:20.575Z,100432.00
2018-11-13T02:05:48.359Z,100428.00
2018-11-13T02:08:15.942Z,100424.00
2018-11-13T02:10:43.523Z,100429.00
2018-11-13T02:13:11.365Z,100428.00
2018-11-13T02:15:38.884Z,100430.00
2018-11-13T02:18:06.350Z,100431.00
2018-11-13T02:20:33.851Z,100431.00
2018-11-13T02:23:01.402Z,100436.00
2018-11-13T02:25:29.300Z,100431.00
2018-11-13T02:27:56.806Z,100428.00
2018-11-13T02:30:24.943Z,100427.00
2018-11-13T02:32:52.448Z,100426.00
2018-11-13T02:35:20.617Z,100423.00
2018-11-13T02:37:48.361Z,100427.00
2018-11-13T02:40:15.931Z,100433.00
2018-11-13T02:42:43.452Z,100428.00
2018-11-13T02:45:14.394Z,100423.00
2018-11-13T02:47:42.305Z,100422.00
2018-11-13T02:50:12.677Z,100421.00
2018-11-13T02:52:40.498Z,100417.00
2018-11-13T02:55:08.851Z,100420.00
2018-11-13T02:57:36.324Z,100424.00
2018-11-13T03:00:07.076Z,100428.00
2018-11-13T03:02:34.950Z,100427.00
2018-11-13T03:05:02.675Z,100423.00
2018-11-13T03:07:30.223Z,100425.00
2018-11-13T03:09:58.085Z,100425.00
2018-11-13T03:12:26.747Z,100427.00
2018-11-13T03:14:54.723Z,100424.00
2018-11-13T03:17:22.215Z,100426.00
2018-11-13T03:19:50.295Z,100424.00
2018-11-13T03:22:18.068Z,100425.00
2018-11-13T03:24:45.614Z,100424.00
2018-11-13T03:27:13.175Z,100424.00
2018-11-13T03:29:41.062Z,100416.00
2018-11-13T03:32:08.685Z,100420.00
2018-11-13T03:34:36.187Z,100412.00
2018-11-13T03:37:04.202Z,100420.00
2018-11-13T03:39:31.704Z,100411.00
2018-11-13T03:41:59.295Z,100409.00
2018-11-13T03:44:26.935Z,100403.00
2018-11-13T03:46:54.489Z,100410.00
2018-11-13T03:49:21.997Z,100412.00
2018-11-13T03:51:49.716Z,100413.00
2018-11-13T03:54:18.308Z,100415.00
2018-11-13T03:56:45.782Z,100406.00
2018-11-13T03:59:13.545Z,100403.00
2018-11-13T04:01:41.047Z,100406.00
2018-11-13T04:04:12.576Z,100409.00
2018-11-13T04:06:40.214Z,100414.00
2018-11-13T04:09:09.980Z,100420.00
2018-11-13T04:11:38.451Z,100412.00
2018-11-13T04:14:06.143Z,100400.00
2018-11-13T04:16:33.922Z,100382.00
2018-11-13T04:19:01.755Z,100398.00
2018-11-13T04:21:29.482Z,100399.00
2018-11-13T04:23:57.011Z,100400.00
2018-11-13T04:26:25.048Z,100404.00
2018-11-13T04:28:52.603Z,100412.00
2018-11-13T04:31:20.128Z,100402.00
2018-11-13T04:33:47.972Z,100406.00
2018-11-13T04:36:15.636Z,100399.00
2018-11-13T04:38:44.218Z,100397.00
2018-11-13T04:41:11.691Z,100396.00
2018-11-13T04:43:39.218Z,100394.00
2018-11-13T04:46:07.007Z,100386.00
2018-11-13T04:48:34.643Z,100383.00
2018-11-13T04:51:02.204Z,100378.00
2018-11-13T04:53:30.018Z,100376.00
2018-11-13T04:55:57.788Z,100377.00
2018-11-13T04:58:25.363Z,100375.00
2018-11-13T05:00:53.115Z,100372.00
2018-11-13T05:03:20.623Z,100371.00
2018-11-13T05:05:48.203Z,100374.00
2018-11-13T05:08:15.987Z,100379.00
2018-11-13T05:10:43.518Z,100381.00
2018-11-13T05:13:11.052Z,100393.00
2018-11-13T05:15:39.122Z,100404.00
2018-11-13T05:18:06.728Z,100414.00
2018-11-13T05:20:34.003Z,100425.00
2018-11-13T05:23:01.559Z,100430.00
2018-11-13T05:25:29.277Z,100433.00
2018-11-13T05:27:56.829Z,100430.00
2018-11-13T05:31:02.187Z,100437.00
2018-11-13T05:33:29.734Z,100435.00
2018-11-13T05:36:11.419Z,100438.00
2018-11-13T05:38:56.371Z,100431.00
2018-11-13T05:41:23.940Z,100421.00
2018-11-13T05:43:51.424Z,100420.00
2018-11-13T05:46:19.267Z,100424.00
2018-11-13T05:48:46.769Z,100436.00
2018-11-13T05:51:14.394Z,100432.00
2018-11-13T05:53:42.466Z,100431.00
2018-11-13T05:56:09.938Z,100431.00
2018-11-13T05:58:37.487Z,100440.00
2018-11-13T06:01:05.590Z,100440.00
2018-11-13T06:03:33.108Z,100446.00
2018-11-13T06:06:00.914Z,100460.00
2018-11-13T06:08:28.530Z,100464.00
2018-11-13T06:10:55.970Z,100458.00
2018-11-13T06:13:23.828Z,100459.00
2018-11-13T06:15:51.306Z,100466.00
2018-11-13T06:18:18.888Z,100464.00
2018-11-13T06:20:47.728Z,100463.00
2018-11-13T06:23:15.270Z,100469.00
2018-11-13T06:25:42.816Z,100483.00
2018-11-13T06:28:10.655Z,100481.00
2018-11-13T06:30:38.231Z,100479.00
2018-11-13T06:33:05.845Z,100477.00
2018-11-13T06:35:33.771Z,100490.00
2018-11-13T06:38:01.258Z,100493.00
2018-11-13T06:40:28.975Z,100500.00
2018-11-13T06:42:56.483Z,100500.00
2018-11-13T06:45:24.040Z,100496.00
2018-11-13T06:47:52.296Z,100504.00
2018-11-13T06:50:19.797Z,100506.00
2018-11-13T06:52:48.199Z,100519.00
2018-11-13T06:55:22.775Z,100521.00
2018-11-13T06:57:51.260Z,100501.00
2018-11-13T07:00:18.816Z,100503.00
2018-11-13T07:02:46.640Z,100504.00
2018-11-13T07:05:15.422Z,100501.00
2018-11-13T07:07:43.692Z,100508.00
2018-11-13T07:10:15.444Z,100504.00
2018-11-13T07:12:44.635Z,100505.00
2018-11-13T07:15:13.773Z,100510.00
2018-11-13T07:17:42.566Z,100514.00
2018-11-13T07:20:10.731Z,100519.00
2018-11-13T07:22:37.963Z,100518.00
2018-11-13T07:25:05.590Z,100523.00
2018-11-13T07:27:33.529Z,100517.00
2018-11-13T07:30:01.046Z,100522.00
2018-11-13T07:32:28.669Z,100526.00
2018-11-13T07:34:57.351Z,100521.00
2018-11-13T07:37:24.854Z,100529.00
2018-11-13T07:39:52.477Z,100533.00
2018-11-13T07:42:20.742Z,100547.00
2018-11-13T07:44:48.399Z,100555.00
2018-11-13T07:47:16.175Z,100547.00
2018-11-13T07:49:43.848Z,100547.00
2018-11-13T07:52:11.436Z,100562.00
2018-11-13T07:54:38.971Z,100576.00
2018-11-13T07:57:07.420Z,100579.00
2018-11-13T07:59:35.586Z,100570.00
2018-11-13T08:02:03.546Z,100563.00
2018-11-13T08:04:31.421Z,100565.00
2018-11-13T08:06:58.968Z,100559.00
2018-11-13T08:09:26.892Z,100556.00
2018-11-13T08:11:54.439Z,100544.00
2018-11-13T08:14:21.911Z,100549.00
2018-11-13T08:16:49.819Z,100553.00
2018-11-13T08:19:17.852Z,100555.00
2018-11-13T08:21:45.414Z,100558.00
2018-11-13T08:24:13.009Z,100559.00
2018-11-13T08:26:44.290Z,100562.00
2018-11-13T08:29:22.551Z,100569.00
2018-11-13T08:31:50.135Z,100566.00
2018-11-13T08:34:17.747Z,100567.00
2018-11-13T08:36:45.423Z,100569.00
2018-11-13T08:39:13.019Z,100576.00
2018-11-13T08:41:40.510Z,100579.00
2018-11-13T08:44:08.889Z,100582.00
2018-11-13T08:46:36.408Z,100589.00
2018-11-13T08:49:04.532Z,100596.00
2018-11-13T08:51:32.599Z,100603.00
2018-11-13T08:54:00.122Z,100614.00
2018-11-13T08:56:27.694Z,100608.00
2018-11-13T08:58:55.406Z,100612.00
2018-11-13T09:01:22.855Z,100606.00
2018-11-13T09:03:50.377Z,100607.00
2018-11-13T09:06:18.315Z,100617.00
2018-11-13T09:08:45.871Z,100622.00
2018-11-13T09:11:13.433Z,100638.00
2018-11-13T09:13:41.296Z,100626.00
2018-11-13T09:16:08.871Z,100620.00
2018-11-13T09:18:36.475Z,100609.00
2018-11-13T09:21:04.624Z,100623.00
2018-11-13T09:23:32.419Z,100629.00
2018-11-13T09:25:59.935Z,100628.00
2018-11-13T09:28:27.116Z,100627.00
2018-11-13T09:30:55.253Z,100627.00
2018-11-13T09:33:22.625Z,100644.00
2018-11-13T09:35:51.009Z,100652.00
2018-11-13T09:38:18.540Z,100650.00
2018-11-13T09:40:46.075Z,100655.00
2018-11-13T09:43:14.019Z,100668.00
2018-11-13T09:45:41.602Z,100671.00
2018-11-13T09:48:09.107Z,100676.00
2018-11-13T09:50:37.248Z,100665.00
2018-11-13T09:53:04.860Z,100664.00
2018-11-13T09:55:32.362Z,100660.00
2018-11-13T09:58:00.042Z,100657.00
2018-11-13T10:00:27.672Z,100657.00
2018-11-13T10:02:57.939Z,100663.00
2018-11-13T10:05:25.405Z,100661.00
2018-11-13T10:07:53.505Z,100666.00
2018-11-13T10:10:21.374Z,100670.00
2018-11-13T10:12:48.866Z,100667.00
2018-11-13T10:15:18.863Z,100673.00
2018-11-13T10:17:46.632Z,100674.00
2018-11-13T10:20:14.896Z,100678.00
2018-11-13T10:22:44.284Z,100685.00
2018-11-13T10:25:12.376Z,100687.00
2018-11-13T10:27:40.455Z,100692.00
2018-11-13T10:30:14.159Z,100694.00
2018-11-13T10:32:42.996Z,100696.00
2018-11-13T10:35:12.096Z,100689.00
2018-11-13T10:37:40.339Z,100696.00
2018-11-13T10:40:10.563Z,100699.00
2018-11-13T10:42:38.555Z,100699.00
2018-11-13T10:45:09.439Z,100698.00
2018-11-13T10:47:36.946Z,100703.00
2018-11-13T10:50:43.944Z,100714.00
2018-11-13T10:53:11.588Z,100721.00
2018-11-13T10:55:39.094Z,100715.00
2018-11-13T10:58:35.870Z,100715.00
2018-11-13T11:01:27.877Z,100713.00
2018-11-13T11:04:01.278Z,100711.00
2018-11-13T11:06:31.547Z,100717.00
2018-11-13T11:08:59.049Z,100717.00
2018-11-13T11:11:26.855Z,100709.00
2018-11-13T11:13:54.480Z,100703.00
2018-11-13T11:16:23.294Z,100706.00
2018-11-13T11:18:50.849Z,100701.00
2018-11-13T11:21:18.327Z,100694.00
2018-11-13T11:23:46.309Z,100700.00
2018-11-13T11:26:14.095Z,100701.00
2018-11-13T11:28:41.633Z,100715.00
2018-11-13T11:31:09.484Z,100713.00
2018-11-13T11:33:36.879Z,100711.00
2018-11-13T11:36:04.904Z,100718.00
2018-11-13T11:38:32.727Z,100725.00
2018-11-13T11:41:02.307Z,100719.00
2018-11-13T11:43:29.820Z,100709.00
2018-11-13T11:45:57.375Z,100705.00
2018-11-13T11:48:25.107Z,100699.00
2018-11-13T11:50:52.631Z,100704.00
2018-11-13T11:53:20.215Z,100700.00
2018-11-13T11:55:48.013Z,100697.00
2018-11-13T11:58:15.528Z,100696.00
2018-11-13T12:00:44.068Z,100705.00
2018-11-13T12:03:11.738Z,100714.00
2018-11-13T12:05:39.243Z,100722.00
2018-11-13T12:08:06.794Z,100730.00
2018-11-13T12:10:34.518Z,100734.00
2018-11-13T12:13:02.052Z,100738.00
2018-11-13T12:15:29.600Z,100744.00
2018-11-13T12:17:58.342Z,100741.00
2018-11-13T12:20:25.880Z,100740.00
2018-11-13T12:22:53.399Z,100725.00
2018-11-13T12:25:21.357Z,100716.00
2018-11-13T12:27:49.731Z,100714.00
2018-11-13T12:30:18.534Z,100735.00
2018-11-13T12:32:47.172Z,100750.00
2018-11-13T12:35:15.998Z,100754.00
2018-11-13T12:37:43.477Z,100751.00
2018-11-13T12:40:13.355Z,100744.00
2018-11-13T12:42:41.718Z,100746.00
2018-11-13T12:45:09.811Z,100746.00
2018-11-13T12:47:37.441Z,100752.00
2018-11-13T12:50:07.225Z,100753.00
2018-11-13T12:52:34.347Z,100749.00
2018-11-13T12:55:01.876Z,100745.00
2018-11-13T12:57:29.716Z,100755.00
2018-11-13T12:59:57.234Z,100756.00
2018-11-13T13:02:24.715Z,100764.00
2018-11-13T13:04:52.530Z,100768.00
2018-11-13T13:07:20.708Z,100758.00
2018-11-13T13:09:48.227Z,100753.00
2018-11-13T13:12:15.794Z,100756.00
2018-11-13T13:14:43.632Z,100760.00
2018-11-13T13:17:11.137Z,100769.00
2018-11-13T13:19:38.675Z,100765.00
2018-11-13T13:22:06.331Z,100769.00
2018-11-13T13:24:33.797Z,100779.00
2018-11-13T13:27:01.364Z,100790.00
2018-11-13T13:29:28.988Z,100801.00
2018-11-13T13:31:57.572Z,100804.00
2018-11-13T13:34:25.361Z,100805.00
2018-11-13T13:36:52.878Z,100797.00
2018-11-13T13:39:20.412Z,100809.00
2018-11-13T13:41:48.261Z,100811.00
2018-11-13T13:44:15.770Z,100814.00
2018-11-13T13:46:43.455Z,100808.00
2018-11-13T13:49:11.240Z,100809.00
2018-11-13T13:51:38.887Z,100802.00
2018-11-13T13:54:06.626Z,100800.00
2018-11-13T13:56:34.572Z,100791.00
2018-11-13T13:59:02.627Z,100801.00
2018-11-13T14:01:30.174Z,100796.00
2018-11-13T14:03:57.775Z,100802.00
2018-11-13T14:06:25.303Z,100804.00
2018-11-13T14:08:52.906Z,100812.00
2018-11-13T14:11:20.677Z,100808.00
2018-11-13T14:13:48.193Z,100814.00
2018-11-13T14:16:15.709Z,100813.00
2018-11-13T14:18:43.562Z,100814.00
2018-11-13T14:21:24.745Z,100812.00
2018-11-13T14:23:52.320Z,100814.00
2018-11-13T14:26:20.011Z,100826.00
2018-11-13T14:28:49.993Z,100824.00
2018-11-13T14:31:18.144Z,100830.00
2018-11-13T14:33:46.327Z,100828.00
2018-11-13T14:36:16.626Z,100836.00
2018-11-13T14:38:51.619Z,100836.00
2018-11-13T14:41:19.152Z,100838.00
2018-11-13T14:43:46.732Z,100843.00
2018-11-13T14:46:17.225Z,100846.00
2018-11-13T14:48:44.730Z,100849.00
2018-11-13T14:51:12.240Z,100855.00
2018-11-13T14:53:40.304Z,100849.00
2018-11-13T14:56:07.848Z,100861.00
2018-11-13T14:58:35.370Z,100862.00
2018-11-13T15:01:03.290Z,100860.00
2018-11-13T15:03:30.812Z,100859.00
2018-11-13T15:05:58.370Z,100865.00
2018-11-13T15:08:26.180Z,100871.00
2018-11-13T15:10:54.333Z,100874.00
2018-11-13T15:13:23.341Z,100876.00
2018-11-13T15:15:51.143Z,100875.00
2018-11-13T15:18:18.690Z,100874.00
2018-11-13T15:20:47.124Z,100876.00
2018-11-13T15:23:15.936Z,100879.00
2018-11-13T15:25:43.542Z,100873.00
2018-11-13T15:28:11.597Z,100874.00
2018-11-13T15:30:44.824Z,100875.00
2018-11-13T15:33:15.698Z,100879.00
2018-11-13T15:35:43.431Z,100891.00
2018-11-13T15:38:11.175Z,100889.00
2018-11-13T15:40:38.808Z,100893.00
2018-11-13T15:43:06.823Z,100898.00
2018-11-13T15:45:34.443Z,100904.00
2018-11-13T15:48:03.023Z,100900.00
2018-11-13T15:50:32.196Z,100902.00
2018-11-13T15:52:59.744Z,100911.00
2018-11-13T15:55:27.265Z,100913.00
2018-11-13T15:57:55.602Z,100919.00
2018-11-13T16:00:29.745Z,100928.00
2018-11-13T16:02:59.416Z,100935.00
2018-11-13T16:05:30.135Z,100940.00
2018-11-13T16:07:58.952Z,100953.00
2018-11-13T16:10:26.597Z,100952.00
2018-11-13T16:12:54.183Z,100950.00
2018-11-13T16:15:23.321Z,100954.00
2018-11-13T16:17:51.834Z,100958.00
2018-11-13T16:20:19.688Z,100966.00
2018-11-13T16:22:47.589Z,100968.00
2018-11-13T16:25:15.093Z,100971.00
2018-11-13T16:27:42.879Z,100967.00
2018-11-13T16:30:12.655Z,100973.00
2018-11-13T16:32:40.686Z,100968.00
2018-11-13T16:35:10.712Z,100963.00
2018-11-13T16:37:40.448Z,100955.00
2018-11-13T16:40:10.618Z,100961.00
2018-11-13T16:42:38.934Z,100960.00
2018-11-13T16:45:07.546Z,100962.00
2018-11-13T16:47:35.462Z,100967.00
2018-11-13T16:50:04.879Z,100970.00
2018-11-13T16:52:32.386Z,100977.00
2018-11-13T16:54:59.937Z,100979.00
2018-11-13T16:57:27.466Z,100981.00
2018-11-13T16:59:54.980Z,100980.00
2018-11-13T17:02:23.004Z,100982.00
2018-11-13T17:04:50.452Z,100988.00
2018-11-13T17:07:18.019Z,100989.00
2018-11-13T17:09:45.824Z,100987.00
2018-11-13T17:12:13.467Z,100988.00
2018-11-13T17:14:41.016Z,100998.00
2018-11-13T17:17:08.598Z,101002.00
2018-11-13T17:19:37.012Z,101001.00
2018-11-13T17:22:05.676Z,101003.00
2018-11-13T17:24:33.247Z,100998.00
2018-11-13T17:27:07.805Z,101000.00
2018-11-13T17:29:35.447Z,101001.00
2018-11-13T17:32:03.096Z,101003.00
2018-11-13T17:34:30.715Z,101002.00
2018-11-13T17:36:58.259Z,101004.00
2018-11-13T17:39:29.977Z,101010.00
2018-11-13T17:41:58.375Z,101014.00
2018-11-13T17:44:30.834Z,101014.00
2018-11-13T17:46:59.027Z,101010.00
2018-11-13T17:49:26.639Z,101011.00
2018-11-13T17:51:54.191Z,101009.00
2018-11-13T17:54:23.683Z,101015.00
2018-11-13T17:56:49.704Z,101016.00
2018-11-13T17:59:17.258Z,101025.00
2018-11-13T18:01:45.137Z,101029.00
2018-11-13T18:04:12.704Z,101028.00
2018-11-13T18:06:40.551Z,101028.00
2018-11-13T18:09:11.407Z,101031.00
2018-11-13T18:11:38.894Z,101030.00
2018-11-13T18:14:06.531Z,101032.00
2018-11-13T18:16:34.306Z,101035.00
2018-11-13T18:19:01.871Z,101041.00
2018-11-13T18:21:29.446Z,101040.00
2018-11-13T18:23:57.047Z,101051.00
2018-11-13T18:26:24.547Z,101047.00
2018-11-13T18:28:52.070Z,101044.00
2018-11-13T18:31:20.919Z,101046.00
2018-11-13T18:33:48.479Z,101051.00
2018-11-13T18:36:15.972Z,101056.00
2018-11-13T18:38:44.293Z,101060.00
2018-11-13T18:41:12.524Z,101069.00
2018-11-13T18:43:40.116Z,101065.00
2018-11-13T18:46:08.553Z,101071.00
2018-11-13T18:48:36.167Z,101077.00
2018-11-13T18:51:03.725Z,101081.00
2018-11-13T18:53:31.723Z,101094.00
2018-11-13T18:55:59.266Z,101105.00
2018-11-13T18:58:26.820Z,101113.00
2018-11-13T19:00:54.715Z,101125.00
2018-11-13T19:03:22.240Z,101137.00
2018-11-13T19:05:49.823Z,101141.00
2018-11-13T19:08:17.798Z,101118.00
2018-11-13T19:10:46.783Z,101126.00
2018-11-13T19:13:18.832Z,101122.00
2018-11-13T19:15:52.815Z,101116.00
2018-11-13T19:18:22.045Z,101126.00
2018-11-13T19:20:49.687Z,101133.00
2018-11-13T19:23:17.670Z,101129.00
2018-11-13T19:25:46.137Z,101125.00
2018-11-13T19:28:13.720Z,101123.00
2018-11-13T19:30:41.515Z,101113.00
2018-11-13T19:33:38.083Z,101118.00
2018-11-13T19:36:38.141Z,101120.00
2018-11-13T19:39:44.036Z,101131.00
2018-11-13T19:42:12.023Z,101131.00
2018-11-13T19:44:46.705Z,101129.00
2018-11-13T19:47:14.078Z,101131.00
2018-11-13T19:49:42.241Z,101138.00
2018-11-13T19:52:10.301Z,101144.00
2018-11-13T19:54:37.865Z,101149.00
2018-11-13T19:57:05.318Z,101145.00
2018-11-13T19:59:33.959Z,101144.00
2018-11-13T20:02:01.441Z,101144.00
2018-11-13T20:04:29.020Z,101139.00
2018-11-13T20:06:57.522Z,101140.00
2018-11-13T20:09:25.053Z,101139.00
2018-11-13T20:11:52.688Z,101147.00
2018-11-13T20:14:20.467Z,101149.00
2018-11-13T20:16:48.058Z,101147.00
2018-11-13T20:19:15.727Z,101149.00
2018-11-13T20:21:43.330Z,101153.00
2018-11-13T20:24:10.867Z,101160.00
2018-11-13T20:26:38.617Z,101163.00
2018-11-13T20:29:07.270Z,101172.00
2018-11-13T20:31:35.727Z,101175.00
2018-11-13T20:34:03.235Z,101174.00
2018-11-13T20:36:30.843Z,101174.00
2018-11-13T20:38:58.373Z,101170.00
2018-11-13T20:41:25.926Z,101175.00
2018-11-13T20:43:54.555Z,101174.00
2018-11-13T20:46:22.138Z,101181.00
2018-11-13T20:48:49.678Z,101175.00
2018-11-13T20:51:17.217Z,101175.00
2018-11-13T20:53:45.257Z,101171.00
2018-11-13T20:56:12.764Z,101175.00
2018-11-13T20:58:40.262Z,101176.00
2018-11-13T21:01:08.560Z,101179.00
2018-11-13T21:03:36.123Z,101185.00
2018-11-13T21:06:03.795Z,101186.00
2018-11-13T21:08:31.403Z,101184.00
2018-11-13T21:11:00.774Z,101182.00
2018-11-13T21:13:27.966Z,101184.00
2018-11-13T21:16:33.743Z,101189.00
2018-11-13T21:19:21.050Z,101187.00
2018-11-13T21:21:49.019Z,101188.00
2018-11-13T21:24:48.150Z,101190.00
2018-11-13T21:27:54.537Z,101193.00
2018-11-13T21:31:00.613Z,101189.00
2018-11-13T21:33:28.264Z,101191.00
2018-11-13T21:35:55.757Z,101190.00
2018-11-13T21:38:38.427Z,101192.00
2018-11-13T21:41:05.979Z,101193.00
2018-11-13T21:43:33.569Z,101192.00
2018-11-13T21:46:01.499Z,101198.00
2018-11-13T21:48:29.159Z,101196.00
2018-11-13T21:50:56.755Z,101200.00
2018-11-13T21:53:24.706Z,101204.00
2018-11-13T21:55:52.343Z,101206.00
2018-11-13T21:58:19.688Z,101210.00
2018-11-13T22:00:48.005Z,101209.00
2018-11-13T22:03:15.629Z,101222.00
2018-11-13T22:05:43.248Z,101222.00
2018-11-13T22:08:10.972Z,101220.00
2018-11-13T22:10:38.672Z,101227.00
2018-11-13T22:13:06.886Z,101228.00
2018-11-13T22:15:34.432Z,101230.00
2018-11-13T22:18:02.499Z,101229.00
2018-11-13T22:20:29.594Z,101233.00
2018-11-13T22:22:59.374Z,101237.00
2018-11-13T22:25:27.019Z,101236.00
2018-11-13T22:27:55.528Z,101240.00
2018-11-13T22:30:24.205Z,101238.00
2018-11-13T22:32:51.966Z,101240.00
2018-11-13T22:35:20.484Z,101240.00
2018-11-13T22:37:47.992Z,101243.00
2018-11-13T22:40:17.115Z,101244.00
2018-11-13T22:42:44.985Z,101240.00
2018-11-13T22:45:14.756Z,101243.00
2018-11-13T22:47:42.588Z,101248.00
2018-11-13T22:50:20.397Z,101252.00
2018-11-13T22:52:48.467Z,101250.00
2018-11-13T22:55:16.656Z,101248.00
2018-11-13T22:57:45.395Z,101250.00
2018-11-13T23:00:16.875Z,101253.00
2018-11-13T23:02:44.620Z,101252.00
2018-11-13T23:05:12.123Z,101253.00
2018-11-13T23:07:39.939Z,101260.00
2018-11-13T23:10:09.559Z,101259.00
2018-11-13T23:12:37.350Z,101257.00
2018-11-13T23:15:08.297Z,101251.00
2018-11-13T23:17:35.803Z,101261.00
2018-11-13T23:20:04.099Z,101267.00
2018-11-13T23:22:31.951Z,101266.00
2018-11-13T23:24:59.593Z,101269.00
2018-11-13T23:27:27.167Z,101267.00
2018-11-13T23:29:54.949Z,101266.00
2018-11-13T23:32:22.535Z,101272.00
2018-11-13T23:34:50.151Z,101275.00
2018-11-13T23:37:25.961Z,101276.00
2018-11-13T23:39:55.848Z,101279.00
2018-11-13T23:42:23.748Z,101283.00
2018-11-13T23:44:58.025Z,101279.00
2018-11-13T23:47:25.536Z,101280.00
2018-11-13T23:49:53.094Z,101279.00
2018-11-13T23:52:20.933Z,101283.00
2018-11-13T23:54:48.732Z,101289.00
2018-11-13T23:57:16.257Z,101284.00
2018-11-13T23:59:44.033Z,101286.00
